Terminal Aerodrome Forecast
Issued by NWS Wilmington, OH

Current Version | Previous Version | Graphics & Text | Print | Product List | Glossary On
Versions: 1 2 3 4 5 6 7 8 9 10 11 12 13 14 15 16 17 18 19 20 21 22 23 24 25 26 27 28 29
000
FTUS41 KILN 162300
TAFCVG
TAF
KCVG 162325Z 1700/1806 01004KT P6SM OVC025
     FM170800 VRB03KT 4SM BR SCT025
     FM171000 00000KT 2SM BR SCT025
      TEMPO 1710/1712 1/2SM FG
     FM171300 VRB03KT 4SM BR SCT025
     FM171400 VRB03KT P6SM SCT025
     FM171600 26004KT P6SM BKN035
     FM172300 34004KT P6SM BKN120=

USA.gov is the U.S. government's official web portal to all federal, state and local government web resources and services.